DTMB Airport Information

Runway Information
Runway 07 Length 9678 ft width 148 ft
Elevation 8 ft Threshold 0 ft Heading 74
Runway 25 Length 9678 ft Width 148 ft
Elevation 8 ft Threshold 0 ft Heading 254
Airport Frequencies
Type APP Name BOURGUIBA Frequency 119.3 MHZ
Type ATIS Name MONASTIR A Frequency 113.1 MHZ
Type TWR Name BOURGUIBA Frequency 118.3 MHZ
Airport Navaids
Type VOR-DME Name Monastir Frequency 113100 KHZ
Airport Weather Information & NOTAM
ADDS - METARS form results

(2056 UTC 12 December 2018)
Data provider http://aviationweather.gov/metar/data/
 
Forecast for: DTMB (HABIB BOURGUIBA , TN)
Text: TAF DTMB 121700Z 1218/1318 20004KT 9999 FEW030
Forecast period: 1800 UTC 12 December 2018 to 1800 UTC 13 December 2018
Forecast type: FROM: standard forecast or significant change
Winds: from the SSW (200 degrees) at 5 MPH (4 knots; 2.1 m/s)
Visibility: 6 or more miles 10+ km)
Ceiling: at least 12,000 feet AGL
Clouds: few clouds at 3000 feet AGL
Weather: no significant weather forecast for this period